Westville, Oklahoma
Current Conditions -  °F | °C
As of 2:15 AM on Tuesday 21 Oct 2014 (Local Time) from KSLG Reporting Station
Broken Clouds Broken Clouds  
Wind Chill: 11°   Ceiling: 300
Heat Index: 11°   Visibility: 0.75mi
Dew Point:   Wind: 6mph
Humidity: 82%   Direction: 80°E
Pressure: 30.09"   Gusts: NA
Location:  35.99°N, 94.57°W
Report Text: KSLG 210715Z AUTO 08005KT 3/4SM BKN003 11/08 A3009 RMK AO1
Loading
Personal Weather Stations






























Interactive Weather Map
Tropical Storm Tracking
New forecast layout! Learn more

10-Day Weather Forecast

Advertisements
Track Severe Weather on mobile